sensor_id;sensor_type;location;lat;lon;timestamp;P1;durP1;ratioP1;P2;durP2;ratioP2
4821;SDS011;2425;47.794;13.068;2023-07-13T00:00:06;0.87;;;0.87;;
4821;SDS011;2425;47.794;13.068;2023-07-13T00:02:37;0.90;;;0.90;;
4821;SDS011;2425;47.794;13.068;2023-07-13T00:05:04;1.83;;;1.00;;
4821;SDS011;2425;47.794;13.068;2023-07-13T00:07:31;1.10;;;1.10;;
4821;SDS011;2425;47.794;13.068;2023-07-13T00:09:58;1.10;;;1.00;;
4821;SDS011;2425;47.794;13.068;2023-07-13T00:12:26;0.90;;;0.90;;
4821;SDS011;2425;47.794;13.068;2023-07-13T00:14:54;1.00;;;0.97;;
4821;SDS011;2425;47.794;13.068;2023-07-13T00:17:22;0.90;;;0.90;;
4821;SDS011;2425;47.794;13.068;2023-07-13T00:19:50;0.90;;;0.90;;
4821;SDS011;2425;47.794;13.068;2023-07-13T00:22:17;1.00;;;1.00;;
4821;SDS011;2425;47.794;13.068;2023-07-13T00:24:44;0.80;;;0.80;;
4821;SDS011;2425;47.794;13.068;2023-07-13T00:27:11;1.00;;;1.00;;
4821;SDS011;2425;47.794;13.068;2023-07-13T00:29:38;1.00;;;1.00;;
4821;SDS011;2425;47.794;13.068;2023-07-13T00:32:05;1.10;;;1.10;;
4821;SDS011;2425;47.794;13.068;2023-07-13T00:34:34;1.00;;;0.80;;
4821;SDS011;2425;47.794;13.068;2023-07-13T00:37:03;0.80;;;0.80;;
4821;SDS011;2425;47.794;13.068;2023-07-13T00:39:31;0.97;;;0.90;;
4821;SDS011;2425;47.794;13.068;2023-07-13T00:41:58;0.70;;;0.70;;
4821;SDS011;2425;47.794;13.068;2023-07-13T00:44:25;0.67;;;0.67;;
4821;SDS011;2425;47.794;13.068;2023-07-13T00:46:52;0.90;;;0.90;;
4821;SDS011;2425;47.794;13.068;2023-07-13T00:49:22;0.80;;;0.80;;
4821;SDS011;2425;47.794;13.068;2023-07-13T00:51:50;0.97;;;0.97;;
4821;SDS011;2425;47.794;13.068;2023-07-13T00:54:21;1.00;;;1.00;;
4821;SDS011;2425;47.794;13.068;2023-07-13T00:56:50;0.80;;;0.80;;
4821;SDS011;2425;47.794;13.068;2023-07-13T00:59:18;1.00;;;1.00;;
4821;SDS011;2425;47.794;13.068;2023-07-13T01:01:46;0.80;;;0.80;;
4821;SDS011;2425;47.794;13.068;2023-07-13T01:04:14;0.97;;;0.97;;
4821;SDS011;2425;47.794;13.068;2023-07-13T01:06:41;0.73;;;0.73;;
4821;SDS011;2425;47.794;13.068;2023-07-13T01:09:09;0.73;;;0.73;;
4821;SDS011;2425;47.794;13.068;2023-07-13T01:11:38;0.73;;;0.73;;
4821;SDS011;2425;47.794;13.068;2023-07-13T01:14:06;1.07;;;1.03;;
4821;SDS011;2425;47.794;13.068;2023-07-13T01:16:34;0.87;;;0.87;;
4821;SDS011;2425;47.794;13.068;2023-07-13T01:19:01;0.70;;;0.70;;
4821;SDS011;2425;47.794;13.068;2023-07-13T01:21:32;0.70;;;0.70;;
4821;SDS011;2425;47.794;13.068;2023-07-13T01:23:59;0.60;;;0.60;;
4821;SDS011;2425;47.794;13.068;2023-07-13T01:26:27;0.97;;;0.97;;
4821;SDS011;2425;47.794;13.068;2023-07-13T01:28:54;0.70;;;0.70;;
4821;SDS011;2425;47.794;13.068;2023-07-13T01:31:22;0.80;;;0.80;;
4821;SDS011;2425;47.794;13.068;2023-07-13T01:33:48;0.60;;;0.60;;
4821;SDS011;2425;47.794;13.068;2023-07-13T01:36:15;0.80;;;0.80;;
4821;SDS011;2425;47.794;13.068;2023-07-13T01:38:43;0.80;;;0.80;;
4821;SDS011;2425;47.794;13.068;2023-07-13T01:41:10;0.67;;;0.67;;
4821;SDS011;2425;47.794;13.068;2023-07-13T01:43:36;0.70;;;0.70;;
4821;SDS011;2425;47.794;13.068;2023-07-13T01:46:04;0.90;;;0.90;;
4821;SDS011;2425;47.794;13.068;2023-07-13T01:48:30;0.80;;;0.80;;
4821;SDS011;2425;47.794;13.068;2023-07-13T01:50:57;0.90;;;0.90;;
4821;SDS011;2425;47.794;13.068;2023-07-13T01:53:24;1.00;;;1.00;;
4821;SDS011;2425;47.794;13.068;2023-07-13T01:55:52;0.90;;;0.90;;
4821;SDS011;2425;47.794;13.068;2023-07-13T01:58:19;0.70;;;0.70;;
4821;SDS011;2425;47.794;13.068;2023-07-13T02:00:47;0.80;;;0.80;;
4821;SDS011;2425;47.794;13.068;2023-07-13T02:03:14;0.70;;;0.70;;
4821;SDS011;2425;47.794;13.068;2023-07-13T02:05:43;0.97;;;0.97;;
4821;SDS011;2425;47.794;13.068;2023-07-13T02:08:09;0.70;;;0.70;;
4821;SDS011;2425;47.794;13.068;2023-07-13T02:10:37;0.87;;;0.87;;
4821;SDS011;2425;47.794;13.068;2023-07-13T02:13:05;0.90;;;0.90;;
4821;SDS011;2425;47.794;13.068;2023-07-13T02:15:32;0.73;;;0.73;;
4821;SDS011;2425;47.794;13.068;2023-07-13T02:17:59;0.77;;;0.77;;
4821;SDS011;2425;47.794;13.068;2023-07-13T02:20:26;0.70;;;0.70;;
4821;SDS011;2425;47.794;13.068;2023-07-13T02:22:52;0.90;;;0.90;;
4821;SDS011;2425;47.794;13.068;2023-07-13T02:25:19;0.60;;;0.60;;
4821;SDS011;2425;47.794;13.068;2023-07-13T02:27:46;0.70;;;0.70;;
4821;SDS011;2425;47.794;13.068;2023-07-13T02:30:14;0.87;;;0.87;;
4821;SDS011;2425;47.794;13.068;2023-07-13T02:32:40;0.90;;;0.80;;
4821;SDS011;2425;47.794;13.068;2023-07-13T02:35:08;0.67;;;0.67;;
4821;SDS011;2425;47.794;13.068;2023-07-13T02:37:35;0.70;;;0.70;;
4821;SDS011;2425;47.794;13.068;2023-07-13T02:40:02;0.70;;;0.70;;
4821;SDS011;2425;47.794;13.068;2023-07-13T02:42:33;0.73;;;0.73;;
4821;SDS011;2425;47.794;13.068;2023-07-13T02:45:00;0.70;;;0.70;;
4821;SDS011;2425;47.794;13.068;2023-07-13T02:47:28;0.80;;;0.80;;
4821;SDS011;2425;47.794;13.068;2023-07-13T02:49:55;0.60;;;0.60;;
4821;SDS011;2425;47.794;13.068;2023-07-13T02:52:21;0.60;;;0.60;;
4821;SDS011;2425;47.794;13.068;2023-07-13T02:54:48;0.70;;;0.70;;
4821;SDS011;2425;47.794;13.068;2023-07-13T02:57:15;1.00;;;1.00;;
4821;SDS011;2425;47.794;13.068;2023-07-13T02:59:42;0.70;;;0.60;;
4821;SDS011;2425;47.794;13.068;2023-07-13T03:02:09;0.70;;;0.70;;
4821;SDS011;2425;47.794;13.068;2023-07-13T03:04:37;0.70;;;0.70;;
4821;SDS011;2425;47.794;13.068;2023-07-13T03:07:04;0.83;;;0.83;;
4821;SDS011;2425;47.794;13.068;2023-07-13T03:09:32;0.70;;;0.70;;
4821;SDS011;2425;47.794;13.068;2023-07-13T03:11:59;0.57;;;0.57;;
4821;SDS011;2425;47.794;13.068;2023-07-13T03:14:26;0.60;;;0.60;;
4821;SDS011;2425;47.794;13.068;2023-07-13T03:16:53;0.70;;;0.70;;
4821;SDS011;2425;47.794;13.068;2023-07-13T03:19:19;0.80;;;0.67;;
4821;SDS011;2425;47.794;13.068;2023-07-13T03:21:48;2.23;;;0.70;;
4821;SDS011;2425;47.794;13.068;2023-07-13T03:24:15;0.70;;;0.70;;
4821;SDS011;2425;47.794;13.068;2023-07-13T03:26:42;0.60;;;0.60;;
4821;SDS011;2425;47.794;13.068;2023-07-13T03:29:08;0.67;;;0.60;;
4821;SDS011;2425;47.794;13.068;2023-07-13T03:31:37;0.67;;;0.67;;
4821;SDS011;2425;47.794;13.068;2023-07-13T03:34:04;0.70;;;0.70;;
4821;SDS011;2425;47.794;13.068;2023-07-13T03:36:31;0.60;;;0.60;;
4821;SDS011;2425;47.794;13.068;2023-07-13T03:39:00;0.80;;;0.80;;
4821;SDS011;2425;47.794;13.068;2023-07-13T03:41:28;0.70;;;0.70;;
4821;SDS011;2425;47.794;13.068;2023-07-13T03:43:56;0.60;;;0.60;;
4821;SDS011;2425;47.794;13.068;2023-07-13T03:46:23;0.70;;;0.70;;
4821;SDS011;2425;47.794;13.068;2023-07-13T03:48:50;0.73;;;0.73;;
4821;SDS011;2425;47.794;13.068;2023-07-13T03:51:17;0.53;;;0.53;;
4821;SDS011;2425;47.794;13.068;2023-07-13T03:53:44;0.50;;;0.50;;
4821;SDS011;2425;47.794;13.068;2023-07-13T03:56:13;0.53;;;0.53;;
4821;SDS011;2425;47.794;13.068;2023-07-13T03:58:41;0.70;;;0.70;;
4821;SDS011;2425;47.794;13.068;2023-07-13T04:01:09;0.60;;;0.60;;
4821;SDS011;2425;47.794;13.068;2023-07-13T04:03:37;1.17;;;0.60;;
4821;SDS011;2425;47.794;13.068;2023-07-13T04:06:05;0.60;;;0.60;;
4821;SDS011;2425;47.794;13.068;2023-07-13T04:08:33;1.17;;;0.60;;
4821;SDS011;2425;47.794;13.068;2023-07-13T04:11:01;3.50;;;0.70;;
4821;SDS011;2425;47.794;13.068;2023-07-13T04:13:30;0.63;;;0.63;;
4821;SDS011;2425;47.794;13.068;2023-07-13T04:15:57;0.50;;;0.50;;
4821;SDS011;2425;47.794;13.068;2023-07-13T04:18:23;0.50;;;0.50;;
4821;SDS011;2425;47.794;13.068;2023-07-13T04:20:50;0.60;;;0.60;;
4821;SDS011;2425;47.794;13.068;2023-07-13T04:23:17;0.70;;;0.70;;
4821;SDS011;2425;47.794;13.068;2023-07-13T04:25:44;0.63;;;0.63;;
4821;SDS011;2425;47.794;13.068;2023-07-13T04:28:11;0.60;;;0.60;;
4821;SDS011;2425;47.794;13.068;2023-07-13T04:30:39;0.67;;;0.67;;
4821;SDS011;2425;47.794;13.068;2023-07-13T04:33:06;0.53;;;0.53;;
4821;SDS011;2425;47.794;13.068;2023-07-13T04:35:33;0.60;;;0.60;;
4821;SDS011;2425;47.794;13.068;2023-07-13T04:38:00;0.70;;;0.70;;
4821;SDS011;2425;47.794;13.068;2023-07-13T04:40:27;0.60;;;0.60;;
4821;SDS011;2425;47.794;13.068;2023-07-13T04:42:54;0.77;;;0.77;;
4821;SDS011;2425;47.794;13.068;2023-07-13T04:45:21;0.60;;;0.60;;
4821;SDS011;2425;47.794;13.068;2023-07-13T04:47:50;0.60;;;0.60;;
4821;SDS011;2425;47.794;13.068;2023-07-13T04:50:17;0.63;;;0.63;;
4821;SDS011;2425;47.794;13.068;2023-07-13T04:52:48;0.67;;;0.67;;
4821;SDS011;2425;47.794;13.068;2023-07-13T04:55:15;0.80;;;0.80;;
4821;SDS011;2425;47.794;13.068;2023-07-13T04:57:42;0.70;;;0.70;;
4821;SDS011;2425;47.794;13.068;2023-07-13T05:00:09;0.63;;;0.63;;
4821;SDS011;2425;47.794;13.068;2023-07-13T05:02:37;0.53;;;0.53;;
4821;SDS011;2425;47.794;13.068;2023-07-13T05:05:06;0.50;;;0.50;;
4821;SDS011;2425;47.794;13.068;2023-07-13T05:07:33;0.80;;;0.80;;
4821;SDS011;2425;47.794;13.068;2023-07-13T05:10:00;0.77;;;0.77;;
4821;SDS011;2425;47.794;13.068;2023-07-13T05:12:28;0.50;;;0.50;;
4821;SDS011;2425;47.794;13.068;2023-07-13T05:14:54;0.77;;;0.77;;
4821;SDS011;2425;47.794;13.068;2023-07-13T05:17:21;0.70;;;0.70;;
4821;SDS011;2425;47.794;13.068;2023-07-13T05:19:48;0.50;;;0.50;;
4821;SDS011;2425;47.794;13.068;2023-07-13T05:22:16;0.50;;;0.50;;
4821;SDS011;2425;47.794;13.068;2023-07-13T05:24:43;0.60;;;0.60;;
4821;SDS011;2425;47.794;13.068;2023-07-13T05:27:09;0.70;;;0.70;;
4821;SDS011;2425;47.794;13.068;2023-07-13T05:29:36;0.70;;;0.70;;
4821;SDS011;2425;47.794;13.068;2023-07-13T05:32:03;0.60;;;0.60;;
4821;SDS011;2425;47.794;13.068;2023-07-13T05:34:30;0.70;;;0.70;;
4821;SDS011;2425;47.794;13.068;2023-07-13T05:36:57;0.60;;;0.60;;
4821;SDS011;2425;47.794;13.068;2023-07-13T05:39:25;0.43;;;0.43;;
4821;SDS011;2425;47.794;13.068;2023-07-13T05:41:52;0.70;;;0.70;;
4821;SDS011;2425;47.794;13.068;2023-07-13T05:44:19;1.60;;;1.53;;
4821;SDS011;2425;47.794;13.068;2023-07-13T05:46:46;1.53;;;1.30;;
4821;SDS011;2425;47.794;13.068;2023-07-13T05:49:12;1.33;;;1.23;;
4821;SDS011;2425;47.794;13.068;2023-07-13T05:51:39;1.30;;;1.20;;
4821;SDS011;2425;47.794;13.068;2023-07-13T05:54:06;7.37;;;1.47;;
4821;SDS011;2425;47.794;13.068;2023-07-13T05:56:34;3.03;;;0.90;;
4821;SDS011;2425;47.794;13.068;2023-07-13T05:59:00;5.33;;;1.60;;
4821;SDS011;2425;47.794;13.068;2023-07-13T06:01:27;4.23;;;1.37;;
4821;SDS011;2425;47.794;13.068;2023-07-13T06:03:56;1.20;;;1.20;;
4821;SDS011;2425;47.794;13.068;2023-07-13T06:06:22;8.13;;;1.83;;
4821;SDS011;2425;47.794;13.068;2023-07-13T06:08:49;5.40;;;1.87;;
4821;SDS011;2425;47.794;13.068;2023-07-13T06:11:16;2.73;;;1.10;;
4821;SDS011;2425;47.794;13.068;2023-07-13T06:13:45;3.63;;;1.30;;
4821;SDS011;2425;47.794;13.068;2023-07-13T06:16:12;1.27;;;1.13;;
4821;SDS011;2425;47.794;13.068;2023-07-13T06:18:39;1.13;;;1.03;;
4821;SDS011;2425;47.794;13.068;2023-07-13T06:21:07;1.00;;;0.90;;
4821;SDS011;2425;47.794;13.068;2023-07-13T06:23:34;2.23;;;1.40;;
4821;SDS011;2425;47.794;13.068;2023-07-13T06:26:01;3.57;;;1.30;;
4821;SDS011;2425;47.794;13.068;2023-07-13T06:28:29;4.73;;;1.60;;
4821;SDS011;2425;47.794;13.068;2023-07-13T06:30:58;6.40;;;1.47;;
4821;SDS011;2425;47.794;13.068;2023-07-13T06:33:26;2.80;;;1.10;;
4821;SDS011;2425;47.794;13.068;2023-07-13T06:35:53;3.87;;;1.13;;
4821;SDS011;2425;47.794;13.068;2023-07-13T06:38:20;4.10;;;1.23;;
4821;SDS011;2425;47.794;13.068;2023-07-13T06:40:46;1.33;;;1.23;;
4821;SDS011;2425;47.794;13.068;2023-07-13T06:43:13;0.80;;;0.80;;
4821;SDS011;2425;47.794;13.068;2023-07-13T06:45:40;1.00;;;1.00;;
4821;SDS011;2425;47.794;13.068;2023-07-13T06:48:09;2.50;;;1.20;;
4821;SDS011;2425;47.794;13.068;2023-07-13T06:50:35;4.30;;;1.00;;
4821;SDS011;2425;47.794;13.068;2023-07-13T06:53:02;2.23;;;1.27;;
4821;SDS011;2425;47.794;13.068;2023-07-13T06:55:29;5.53;;;1.80;;
4821;SDS011;2425;47.794;13.068;2023-07-13T06:57:56;2.93;;;1.53;;
4821;SDS011;2425;47.794;13.068;2023-07-13T07:00:23;2.43;;;1.87;;
4821;SDS011;2425;47.794;13.068;2023-07-13T07:02:49;1.70;;;1.60;;
4821;SDS011;2425;47.794;13.068;2023-07-13T07:05:17;1.57;;;1.47;;
4821;SDS011;2425;47.794;13.068;2023-07-13T07:07:50;5.03;;;1.60;;
4821;SDS011;2425;47.794;13.068;2023-07-13T07:10:28;3.80;;;1.50;;
4821;SDS011;2425;47.794;13.068;2023-07-13T07:12:55;2.80;;;1.73;;
4821;SDS011;2425;47.794;13.068;2023-07-13T07:15:22;1.90;;;1.60;;
4821;SDS011;2425;47.794;13.068;2023-07-13T07:17:49;1.50;;;1.40;;
4821;SDS011;2425;47.794;13.068;2023-07-13T07:20:17;1.60;;;1.43;;
4821;SDS011;2425;47.794;13.068;2023-07-13T07:22:45;1.23;;;1.23;;
4821;SDS011;2425;47.794;13.068;2023-07-13T07:25:12;3.20;;;1.63;;
4821;SDS011;2425;47.794;13.068;2023-07-13T07:27:39;2.20;;;1.37;;
4821;SDS011;2425;47.794;13.068;2023-07-13T07:30:06;2.80;;;1.60;;
4821;SDS011;2425;47.794;13.068;2023-07-13T07:32:34;4.33;;;1.30;;
4821;SDS011;2425;47.794;13.068;2023-07-13T07:35:01;4.30;;;1.40;;
4821;SDS011;2425;47.794;13.068;2023-07-13T07:37:29;4.67;;;3.67;;
4821;SDS011;2425;47.794;13.068;2023-07-13T07:39:56;9.13;;;3.00;;
4821;SDS011;2425;47.794;13.068;2023-07-13T07:42:24;13.63;;;3.37;;
4821;SDS011;2425;47.794;13.068;2023-07-13T07:44:51;15.67;;;4.10;;
4821;SDS011;2425;47.794;13.068;2023-07-13T07:47:18;16.63;;;3.23;;
4821;SDS011;2425;47.794;13.068;2023-07-13T07:49:44;12.53;;;2.70;;
4821;SDS011;2425;47.794;13.068;2023-07-13T07:52:11;11.83;;;2.60;;
4821;SDS011;2425;47.794;13.068;2023-07-13T07:54:40;5.13;;;2.40;;
4821;SDS011;2425;47.794;13.068;2023-07-13T07:57:07;4.90;;;2.53;;
4821;SDS011;2425;47.794;13.068;2023-07-13T07:59:35;10.70;;;2.80;;
4821;SDS011;2425;47.794;13.068;2023-07-13T08:02:02;12.83;;;2.77;;
4821;SDS011;2425;47.794;13.068;2023-07-13T08:04:29;3.57;;;2.53;;
4821;SDS011;2425;47.794;13.068;2023-07-13T08:06:56;5.90;;;2.40;;
4821;SDS011;2425;47.794;13.068;2023-07-13T08:09:24;19.97;;;2.10;;
4821;SDS011;2425;47.794;13.068;2023-07-13T08:11:52;5.63;;;2.23;;
4821;SDS011;2425;47.794;13.068;2023-07-13T08:14:22;2.97;;;2.70;;
4821;SDS011;2425;47.794;13.068;2023-07-13T08:16:49;12.20;;;2.20;;
4821;SDS011;2425;47.794;13.068;2023-07-13T08:19:16;4.80;;;2.13;;
4821;SDS011;2425;47.794;13.068;2023-07-13T08:21:43;7.80;;;1.87;;
4821;SDS011;2425;47.794;13.068;2023-07-13T08:24:10;6.40;;;1.83;;
4821;SDS011;2425;47.794;13.068;2023-07-13T08:26:37;4.50;;;2.50;;
4821;SDS011;2425;47.794;13.068;2023-07-13T08:29:06;2.50;;;2.30;;
4821;SDS011;2425;47.794;13.068;2023-07-13T08:31:32;16.50;;;2.73;;
4821;SDS011;2425;47.794;13.068;2023-07-13T08:33:59;5.90;;;2.57;;
4821;SDS011;2425;47.794;13.068;2023-07-13T08:36:26;3.70;;;2.90;;
4821;SDS011;2425;47.794;13.068;2023-07-13T08:38:53;5.03;;;2.40;;
4821;SDS011;2425;47.794;13.068;2023-07-13T08:41:20;3.70;;;2.27;;
4821;SDS011;2425;47.794;13.068;2023-07-13T08:43:47;2.00;;;1.90;;
4821;SDS011;2425;47.794;13.068;2023-07-13T08:46:17;4.67;;;2.10;;
4821;SDS011;2425;47.794;13.068;2023-07-13T08:48:46;1.63;;;1.63;;
4821;SDS011;2425;47.794;13.068;2023-07-13T08:51:21;7.13;;;1.60;;
4821;SDS011;2425;47.794;13.068;2023-07-13T08:53:54;4.67;;;1.93;;
4821;SDS011;2425;47.794;13.068;2023-07-13T08:56:24;2.17;;;2.07;;
4821;SDS011;2425;47.794;13.068;2023-07-13T08:58:54;2.37;;;2.00;;
4821;SDS011;2425;47.794;13.068;2023-07-13T09:01:24;2.27;;;2.10;;
4821;SDS011;2425;47.794;13.068;2023-07-13T09:03:57;3.70;;;1.97;;
4821;SDS011;2425;47.794;13.068;2023-07-13T09:06:31;2.37;;;2.17;;
4821;SDS011;2425;47.794;13.068;2023-07-13T09:09:05;3.43;;;1.97;;
4821;SDS011;2425;47.794;13.068;2023-07-13T09:11:40;5.80;;;2.40;;
4821;SDS011;2425;47.794;13.068;2023-07-13T09:14:22;10.30;;;2.20;;
4821;SDS011;2425;47.794;13.068;2023-07-13T09:19:31;7.03;;;1.93;;
4821;SDS011;2425;47.794;13.068;2023-07-13T09:21:59;7.10;;;2.20;;
4821;SDS011;2425;47.794;13.068;2023-07-13T09:24:29;4.10;;;1.73;;
4821;SDS011;2425;47.794;13.068;2023-07-13T09:27:01;3.10;;;2.00;;
4821;SDS011;2425;47.794;13.068;2023-07-13T09:29:31;2.07;;;1.93;;
4821;SDS011;2425;47.794;13.068;2023-07-13T09:32:00;1.83;;;1.70;;
4821;SDS011;2425;47.794;13.068;2023-07-13T09:34:30;2.13;;;1.93;;
4821;SDS011;2425;47.794;13.068;2023-07-13T09:36:58;1.93;;;1.87;;
4821;SDS011;2425;47.794;13.068;2023-07-13T09:39:26;5.67;;;2.00;;
4821;SDS011;2425;47.794;13.068;2023-07-13T09:41:55;3.77;;;1.87;;
4821;SDS011;2425;47.794;13.068;2023-07-13T09:44:28;2.97;;;1.90;;
4821;SDS011;2425;47.794;13.068;2023-07-13T09:46:56;22.43;;;3.23;;
4821;SDS011;2425;47.794;13.068;2023-07-13T09:49:23;12.23;;;2.80;;
4821;SDS011;2425;47.794;13.068;2023-07-13T09:51:57;13.40;;;2.70;;
4821;SDS011;2425;47.794;13.068;2023-07-13T09:54:24;11.00;;;2.30;;
4821;SDS011;2425;47.794;13.068;2023-07-13T09:56:54;4.80;;;1.97;;
4821;SDS011;2425;47.794;13.068;2023-07-13T09:59:22;11.27;;;2.70;;
4821;SDS011;2425;47.794;13.068;2023-07-13T10:01:49;7.83;;;2.40;;
4821;SDS011;2425;47.794;13.068;2023-07-13T10:04:17;5.53;;;2.20;;
4821;SDS011;2425;47.794;13.068;2023-07-13T10:06:45;4.87;;;2.00;;
4821;SDS011;2425;47.794;13.068;2023-07-13T10:09:16;3.43;;;1.60;;
4821;SDS011;2425;47.794;13.068;2023-07-13T10:11:44;9.73;;;2.30;;
4821;SDS011;2425;47.794;13.068;2023-07-13T10:14:12;4.57;;;2.00;;
4821;SDS011;2425;47.794;13.068;2023-07-13T10:16:41;2.30;;;2.10;;
4821;SDS011;2425;47.794;13.068;2023-07-13T10:19:10;2.77;;;1.63;;
4821;SDS011;2425;47.794;13.068;2023-07-13T10:21:43;5.50;;;2.27;;
4821;SDS011;2425;47.794;13.068;2023-07-13T10:24:14;5.20;;;1.97;;
4821;SDS011;2425;47.794;13.068;2023-07-13T10:26:46;3.20;;;1.50;;
4821;SDS011;2425;47.794;13.068;2023-07-13T10:29:14;4.10;;;1.70;;
4821;SDS011;2425;47.794;13.068;2023-07-13T10:31:42;4.43;;;1.60;;
4821;SDS011;2425;47.794;13.068;2023-07-13T10:34:11;4.60;;;1.90;;
4821;SDS011;2425;47.794;13.068;2023-07-13T10:36:39;7.07;;;2.03;;
4821;SDS011;2425;47.794;13.068;2023-07-13T10:39:09;9.83;;;1.60;;
4821;SDS011;2425;47.794;13.068;2023-07-13T10:41:42;3.97;;;2.30;;
4821;SDS011;2425;47.794;13.068;2023-07-13T10:44:14;1.67;;;1.40;;
4821;SDS011;2425;47.794;13.068;2023-07-13T10:46:45;3.07;;;1.90;;
4821;SDS011;2425;47.794;13.068;2023-07-13T10:49:12;3.73;;;1.80;;
4821;SDS011;2425;47.794;13.068;2023-07-13T10:51:39;4.57;;;1.50;;
4821;SDS011;2425;47.794;13.068;2023-07-13T10:54:17;2.93;;;1.97;;
4821;SDS011;2425;47.794;13.068;2023-07-13T10:56:48;2.30;;;1.53;;
4821;SDS011;2425;47.794;13.068;2023-07-13T10:59:17;4.50;;;2.00;;
4821;SDS011;2425;47.794;13.068;2023-07-13T11:01:54;2.33;;;1.50;;
4821;SDS011;2425;47.794;13.068;2023-07-13T11:04:22;3.77;;;1.63;;
4821;SDS011;2425;47.794;13.068;2023-07-13T11:06:50;3.37;;;1.70;;
4821;SDS011;2425;47.794;13.068;2023-07-13T11:12:10;3.60;;;2.03;;
4821;SDS011;2425;47.794;13.068;2023-07-13T11:15:04;2.80;;;1.80;;
4821;SDS011;2425;47.794;13.068;2023-07-13T11:17:37;2.50;;;1.33;;
4821;SDS011;2425;47.794;13.068;2023-07-13T11:23:08;4.70;;;1.60;;
4821;SDS011;2425;47.794;13.068;2023-07-13T11:25:45;5.50;;;1.30;;
4821;SDS011;2425;47.794;13.068;2023-07-13T11:28:17;1.90;;;1.50;;
4821;SDS011;2425;47.794;13.068;2023-07-13T11:30:48;1.60;;;1.50;;
4821;SDS011;2425;47.794;13.068;2023-07-13T11:33:17;1.43;;;1.37;;
4821;SDS011;2425;47.794;13.068;2023-07-13T11:35:49;2.53;;;1.60;;
4821;SDS011;2425;47.794;13.068;2023-07-13T11:38:18;1.17;;;1.17;;
4821;SDS011;2425;47.794;13.068;2023-07-13T11:40:46;1.57;;;1.40;;
4821;SDS011;2425;47.794;13.068;2023-07-13T11:43:14;5.10;;;1.90;;
4821;SDS011;2425;47.794;13.068;2023-07-13T11:45:43;3.50;;;1.60;;
4821;SDS011;2425;47.794;13.068;2023-07-13T11:50:58;1.30;;;1.20;;
4821;SDS011;2425;47.794;13.068;2023-07-13T11:53:29;2.73;;;1.40;;
4821;SDS011;2425;47.794;13.068;2023-07-13T11:56:04;1.63;;;1.50;;
4821;SDS011;2425;47.794;13.068;2023-07-13T11:58:31;1.07;;;1.07;;
4821;SDS011;2425;47.794;13.068;2023-07-13T12:01:00;2.30;;;1.50;;
4821;SDS011;2425;47.794;13.068;2023-07-13T12:03:29;1.50;;;1.40;;
4821;SDS011;2425;47.794;13.068;2023-07-13T12:05:58;3.60;;;1.60;;
4821;SDS011;2425;47.794;13.068;2023-07-13T12:08:26;3.57;;;1.60;;
4821;SDS011;2425;47.794;13.068;2023-07-13T12:10:57;1.77;;;1.20;;
4821;SDS011;2425;47.794;13.068;2023-07-13T12:13:34;1.83;;;1.70;;
4821;SDS011;2425;47.794;13.068;2023-07-13T12:16:07;1.53;;;1.43;;
4821;SDS011;2425;47.794;13.068;2023-07-13T12:18:37;1.53;;;1.30;;
4821;SDS011;2425;47.794;13.068;2023-07-13T12:21:05;2.03;;;1.90;;
4821;SDS011;2425;47.794;13.068;2023-07-13T12:23:32;1.90;;;1.80;;
4821;SDS011;2425;47.794;13.068;2023-07-13T12:26:02;2.40;;;2.27;;
4821;SDS011;2425;47.794;13.068;2023-07-13T12:28:31;1.60;;;1.50;;
4821;SDS011;2425;47.794;13.068;2023-07-13T12:30:59;2.20;;;2.03;;
4821;SDS011;2425;47.794;13.068;2023-07-13T12:33:29;1.70;;;1.60;;
4821;SDS011;2425;47.794;13.068;2023-07-13T12:35:57;1.90;;;1.80;;
4821;SDS011;2425;47.794;13.068;2023-07-13T12:38:27;3.80;;;2.20;;
4821;SDS011;2425;47.794;13.068;2023-07-13T12:40:54;2.30;;;1.93;;
4821;SDS011;2425;47.794;13.068;2023-07-13T12:43:22;2.33;;;1.87;;
4821;SDS011;2425;47.794;13.068;2023-07-13T12:45:55;1.73;;;1.63;;
4821;SDS011;2425;47.794;13.068;2023-07-13T12:48:24;2.53;;;2.20;;
4821;SDS011;2425;47.794;13.068;2023-07-13T12:50:54;2.43;;;2.23;;
4821;SDS011;2425;47.794;13.068;2023-07-13T12:53:22;2.10;;;1.93;;
4821;SDS011;2425;47.794;13.068;2023-07-13T12:55:50;3.87;;;1.73;;
4821;SDS011;2425;47.794;13.068;2023-07-13T12:58:20;2.60;;;2.20;;
4821;SDS011;2425;47.794;13.068;2023-07-13T13:00:51;2.33;;;2.00;;
4821;SDS011;2425;47.794;13.068;2023-07-13T13:03:22;5.23;;;2.90;;
4821;SDS011;2425;47.794;13.068;2023-07-13T13:05:57;4.97;;;1.93;;
4821;SDS011;2425;47.794;13.068;2023-07-13T13:08:28;2.23;;;2.13;;
4821;SDS011;2425;47.794;13.068;2023-07-13T13:10:55;2.27;;;2.10;;
4821;SDS011;2425;47.794;13.068;2023-07-13T13:13:22;1.93;;;1.80;;
4821;SDS011;2425;47.794;13.068;2023-07-13T13:15:49;2.47;;;2.23;;
4821;SDS011;2425;47.794;13.068;2023-07-13T13:18:17;2.50;;;2.00;;
4821;SDS011;2425;47.794;13.068;2023-07-13T13:20:44;4.33;;;2.17;;
4821;SDS011;2425;47.794;13.068;2023-07-13T13:23:14;3.30;;;2.30;;
4821;SDS011;2425;47.794;13.068;2023-07-13T13:25:42;2.20;;;2.00;;
4821;SDS011;2425;47.794;13.068;2023-07-13T13:28:12;5.20;;;2.17;;
4821;SDS011;2425;47.794;13.068;2023-07-13T13:30:41;4.60;;;2.37;;
4821;SDS011;2425;47.794;13.068;2023-07-13T13:33:09;6.13;;;2.50;;
4821;SDS011;2425;47.794;13.068;2023-07-13T13:35:37;5.53;;;2.00;;
4821;SDS011;2425;47.794;13.068;2023-07-13T13:38:07;2.07;;;1.87;;
4821;SDS011;2425;47.794;13.068;2023-07-13T13:40:38;5.30;;;1.83;;
4821;SDS011;2425;47.794;13.068;2023-07-13T13:43:09;2.17;;;2.00;;
4821;SDS011;2425;47.794;13.068;2023-07-13T13:45:41;2.60;;;2.37;;
4821;SDS011;2425;47.794;13.068;2023-07-13T13:48:11;2.23;;;1.83;;
4821;SDS011;2425;47.794;13.068;2023-07-13T13:50:40;3.50;;;2.20;;
4821;SDS011;2425;47.794;13.068;2023-07-13T13:53:08;5.10;;;1.93;;
4821;SDS011;2425;47.794;13.068;2023-07-13T13:55:38;1.97;;;1.83;;
4821;SDS011;2425;47.794;13.068;2023-07-13T13:58:07;2.60;;;2.07;;
4821;SDS011;2425;47.794;13.068;2023-07-13T14:00:34;4.50;;;2.10;;
4821;SDS011;2425;47.794;13.068;2023-07-13T14:03:01;2.27;;;2.07;;
4821;SDS011;2425;47.794;13.068;2023-07-13T14:05:28;12.27;;;2.40;;
4821;SDS011;2425;47.794;13.068;2023-07-13T14:07:55;4.80;;;2.20;;
4821;SDS011;2425;47.794;13.068;2023-07-13T14:10:22;5.60;;;2.00;;
4821;SDS011;2425;47.794;13.068;2023-07-13T14:12:52;2.00;;;1.90;;
4821;SDS011;2425;47.794;13.068;2023-07-13T14:15:21;7.83;;;2.10;;
4821;SDS011;2425;47.794;13.068;2023-07-13T14:17:49;2.10;;;1.70;;
4821;SDS011;2425;47.794;13.068;2023-07-13T14:20:16;2.97;;;1.97;;
4821;SDS011;2425;47.794;13.068;2023-07-13T14:22:44;1.93;;;1.73;;
4821;SDS011;2425;47.794;13.068;2023-07-13T14:25:11;2.77;;;2.00;;
4821;SDS011;2425;47.794;13.068;2023-07-13T14:27:38;3.70;;;1.87;;
4821;SDS011;2425;47.794;13.068;2023-07-13T14:30:11;3.23;;;2.00;;
4821;SDS011;2425;47.794;13.068;2023-07-13T14:32:39;2.00;;;1.60;;
4821;SDS011;2425;47.794;13.068;2023-07-13T14:35:07;3.17;;;1.50;;
4821;SDS011;2425;47.794;13.068;2023-07-13T14:37:34;1.60;;;1.50;;
4821;SDS011;2425;47.794;13.068;2023-07-13T14:40:02;1.50;;;1.40;;
4821;SDS011;2425;47.794;13.068;2023-07-13T14:42:37;1.70;;;1.60;;
4821;SDS011;2425;47.794;13.068;2023-07-13T14:45:05;1.73;;;1.70;;
4821;SDS011;2425;47.794;13.068;2023-07-13T14:47:37;3.87;;;1.80;;
4821;SDS011;2425;47.794;13.068;2023-07-13T14:50:04;2.20;;;1.37;;
4821;SDS011;2425;47.794;13.068;2023-07-13T14:52:34;3.77;;;1.43;;
4821;SDS011;2425;47.794;13.068;2023-07-13T14:55:00;1.97;;;1.70;;
4821;SDS011;2425;47.794;13.068;2023-07-13T14:57:27;1.97;;;1.53;;
4821;SDS011;2425;47.794;13.068;2023-07-13T14:59:54;2.07;;;1.57;;
4821;SDS011;2425;47.794;13.068;2023-07-13T15:02:23;2.00;;;1.53;;
4821;SDS011;2425;47.794;13.068;2023-07-13T15:04:55;1.50;;;1.50;;
4821;SDS011;2425;47.794;13.068;2023-07-13T15:07:22;1.63;;;1.40;;
4821;SDS011;2425;47.794;13.068;2023-07-13T15:09:49;2.53;;;1.50;;
4821;SDS011;2425;47.794;13.068;2023-07-13T15:12:16;2.50;;;2.07;;
4821;SDS011;2425;47.794;13.068;2023-07-13T15:14:43;2.23;;;1.80;;
4821;SDS011;2425;47.794;13.068;2023-07-13T15:17:19;1.53;;;1.43;;